Time;durP1;ratioP1;P1;durP2;ratioP2;P2;SDS_P1;SDS_P2;PMS_P1;PMS_P2;Temp;Humidity;BMP_temperature;BMP_pressure;BME280_temperature;BME280_humidity;BME280_pressure;Samples;Min_cycle;Max_cycle;Signal;HPM_P1;HPM_P2
2022/10/31 00:02:15;;;;;;;11.47;5.73;;;;;;;10.22;100.00;96748.47;5060105;28;20200;-71
2022/10/31 00:04:43;;;;;;;10.33;5.13;;;;;;;10.31;100.00;96746.66;5056543;28;20763;-71
2022/10/31 00:07:15;;;;;;;11.67;5.37;;;;;;;10.40;100.00;96751.78;5061115;28;20203;-70
2022/10/31 00:09:41;;;;;;;10.57;5.10;;;;;;;10.16;100.00;96754.38;5071029;28;20512;-71
2022/10/31 00:12:08;;;;;;;9.80;5.50;;;;;;;10.17;100.00;96745.50;5065633;28;20207;-71
2022/10/31 00:14:34;;;;;;;10.87;5.30;;;;;;;10.31;100.00;96749.28;5068511;28;20204;-71
2022/10/31 00:17:01;;;;;;;9.57;4.83;;;;;;;10.20;100.00;96747.78;5066818;28;20200;-71
2022/10/31 00:19:27;;;;;;;14.27;5.10;;;;;;;10.12;100.00;96741.66;5071839;28;20250;-71
2022/10/31 00:21:55;;;;;;;13.83;5.77;;;;;;;9.99;100.00;96747.44;5064717;28;20201;-71
2022/10/31 00:24:22;;;;;;;9.60;5.40;;;;;;;9.78;100.00;96749.63;5068714;28;20211;-71
2022/10/31 00:26:48;;;;;;;9.77;5.37;;;;;;;9.91;100.00;96744.72;5070342;28;20201;-71
2022/10/31 00:29:15;;;;;;;10.03;5.30;;;;;;;9.91;100.00;96742.09;5069186;28;20211;-71
2022/10/31 00:31:41;;;;;;;9.07;4.90;;;;;;;9.82;100.00;96743.03;5069790;28;20201;-71
2022/10/31 00:34:08;;;;;;;8.93;5.00;;;;;;;9.96;100.00;96736.38;5074898;28;20208;-71
2022/10/31 00:36:35;;;;;;;12.40;5.53;;;;;;;9.96;100.00;96739.84;5073545;28;20242;-71
2022/10/31 00:39:03;;;;;;;9.93;4.60;;;;;;;9.96;100.00;96753.00;5070245;28;20329;-71
2022/10/31 00:41:29;;;;;;;9.60;4.90;;;;;;;9.88;100.00;96757.41;5069863;28;20200;-71
2022/10/31 00:43:56;;;;;;;9.57;4.63;;;;;;;9.77;100.00;96744.53;5070769;28;20276;-71
2022/10/31 00:46:22;;;;;;;8.80;4.80;;;;;;;9.78;100.00;96754.88;5074345;28;20220;-71
2022/10/31 00:48:49;;;;;;;7.50;4.50;;;;;;;9.81;100.00;96756.38;5067779;28;20669;-71
2022/10/31 00:51:15;;;;;;;13.27;5.00;;;;;;;9.73;100.00;96762.44;5067080;28;20216;-71
2022/10/31 00:53:42;;;;;;;8.30;4.40;;;;;;;9.72;100.00;96755.53;5068372;28;20204;-71
2022/10/31 00:56:10;;;;;;;7.90;4.90;;;;;;;9.80;100.00;96747.66;5067099;28;20231;-71
2022/10/31 00:58:36;;;;;;;7.03;4.30;;;;;;;9.53;100.00;96756.75;5065096;28;20228;-71
2022/10/31 01:01:04;;;;;;;11.00;5.20;;;;;;;9.69;100.00;96755.84;5068894;28;20204;-71
2022/10/31 01:03:33;;;;;;;8.47;5.00;;;;;;;9.70;100.00;96754.06;5070958;28;20566;-71
2022/10/31 01:06:01;;;;;;;7.67;4.73;;;;;;;9.63;100.00;96760.91;5062885;28;20223;-71
2022/10/31 01:08:28;;;;;;;6.43;4.63;;;;;;;9.63;100.00;96760.91;5069421;28;20204;-71
2022/10/31 01:11:04;;;;;;;8.50;4.73;;;;;;;9.77;100.00;96766.38;5067560;28;20206;-71
2022/10/31 01:13:32;;;;;;;13.10;4.60;;;;;;;9.65;100.00;96760.75;5064654;28;20204;-71
2022/10/31 01:16:00;;;;;;;11.07;5.40;;;;;;;9.53;100.00;96769.91;5068024;28;20223;-71
2022/10/31 01:18:27;;;;;;;7.57;4.57;;;;;;;9.63;100.00;96765.38;5063953;28;20233;-71
2022/10/31 01:21:02;;;;;;;7.73;5.10;;;;;;;9.74;100.00;96753.56;5065316;28;20211;-71
2022/10/31 01:23:29;;;;;;;8.77;5.07;;;;;;;9.67;100.00;96759.59;5065479;28;20200;-71
2022/10/31 01:26:04;;;;;;;7.37;4.07;;;;;;;9.71;100.00;96756.50;5067119;28;20688;-71
2022/10/31 01:28:32;;;;;;;7.07;4.27;;;;;;;9.69;100.00;96763.72;5068614;28;20207;-71
2022/10/31 01:31:02;;;;;;;8.50;4.30;;;;;;;9.73;100.00;96762.44;5072503;28;20211;-71
2022/10/31 01:33:28;;;;;;;10.73;4.07;;;;;;;9.65;100.00;96766.84;5068462;28;20253;-71
2022/10/31 01:35:55;;;;;;;8.13;4.07;;;;;;;9.67;100.00;96758.78;5067222;28;21058;-71
2022/10/31 01:38:21;;;;;;;8.37;4.30;;;;;;;9.65;100.00;96760.75;5072388;28;20204;-71
2022/10/31 01:40:48;;;;;;;6.80;4.07;;;;;;;9.73;100.00;96756.34;5066218;28;20196;-71
2022/10/31 01:43:15;;;;;;;8.33;4.20;;;;;;;9.70;100.00;96756.69;5068361;28;20208;-71
2022/10/31 01:45:47;;;;;;;7.87;4.33;;;;;;;9.61;100.00;96754.16;5065907;28;20223;-71
2022/10/31 01:48:17;;;;;;;10.53;4.67;;;;;;;9.56;100.00;96748.53;5069983;28;20192;-71
2022/10/31 01:50:47;;;;;;;8.77;4.37;;;;;;;9.54;100.00;96750.53;5075593;28;20593;-71
2022/10/31 01:53:14;;;;;;;15.67;4.77;;;;;;;9.60;100.00;96752.50;5069205;28;20238;-71
2022/10/31 01:55:44;;;;;;;8.70;4.60;;;;;;;9.68;100.00;96752.56;5065318;28;20220;-71
2022/10/31 01:58:15;;;;;;;10.33;4.40;;;;;;;9.55;100.00;96754.81;5067549;28;20727;-71
2022/10/31 02:00:46;;;;;;;7.77;4.10;;;;;;;9.38;100.00;96750.44;5066913;28;20588;-71
2022/10/31 02:03:13;;;;;;;10.43;4.33;;;;;;;9.33;100.00;96747.44;5068456;28;20195;-71
2022/10/31 02:05:40;;;;;;;6.93;3.73;;;;;;;9.25;100.00;96743.00;5063268;28;20224;-71
2022/10/31 02:08:13;;;;;;;5.60;3.10;;;;;;;9.34;100.00;96738.59;5068619;28;20218;-71
2022/10/31 02:10:43;;;;;;;7.23;3.57;;;;;;;9.34;100.00;96739.44;5065040;28;20235;-71
2022/10/31 02:13:10;;;;;;;6.53;3.60;;;;;;;9.21;100.00;96743.47;5065400;28;20200;-71
2022/10/31 02:15:38;;;;;;;6.50;3.80;;;;;;;9.14;100.00;96731.94;5067973;28;20229;-71
2022/10/31 02:18:08;;;;;;;5.87;3.40;;;;;;;9.12;100.00;96739.13;5063853;28;20200;-71
2022/10/31 02:20:43;;;;;;;7.73;4.10;;;;;;;9.19;100.00;96732.28;5063584;28;20223;-71
2022/10/31 02:23:32;;;;;;;6.87;4.00;;;;;;;9.08;100.00;96741.25;5067277;28;20302;-71
2022/10/31 02:26:21;;;;;;;9.17;4.27;;;;;;;8.88;100.00;96730.28;5068690;28;20219;-71
2022/10/31 02:29:06;;;;;;;8.80;4.47;;;;;;;9.03;100.00;96737.44;5065409;28;20211;-71
2022/10/31 02:31:41;;;;;;;6.03;4.20;;;;;;;9.01;100.00;96731.50;5062007;28;20551;-71
2022/10/31 02:34:18;;;;;;;10.00;4.20;;;;;;;9.08;100.00;96737.00;5067697;28;20196;-71
2022/10/31 02:36:53;;;;;;;12.10;4.30;;;;;;;9.16;100.00;96730.78;5068556;28;20601;-71
2022/10/31 02:39:25;;;;;;;7.20;4.50;;;;;;;9.17;100.00;96731.59;5064872;28;20248;-71
2022/10/31 02:42:02;;;;;;;6.43;3.83;;;;;;;9.23;100.00;96728.38;5062841;28;21046;-71
2022/10/31 02:44:34;;;;;;;7.10;3.93;;;;;;;9.15;100.00;96723.03;5061072;28;20214;-71
2022/10/31 02:47:06;;;;;;;5.87;3.83;;;;;;;9.20;100.00;96731.28;5067539;28;20204;-71
2022/10/31 02:49:38;;;;;;;13.50;4.13;;;;;;;9.11;100.00;96730.44;5069080;28;20270;-71
2022/10/31 02:52:14;;;;;;;7.93;3.90;;;;;;;9.15;100.00;96741.44;5069785;28;20211;-71
2022/10/31 02:54:41;;;;;;;11.37;4.83;;;;;;;8.85;100.00;96734.03;5068841;28;20225;-71
2022/10/31 02:57:08;;;;;;;8.00;3.80;;;;;;;8.84;100.00;96742.91;5063428;28;20212;-71
2022/10/31 02:59:40;;;;;;;7.30;4.50;;;;;;;9.07;100.00;96730.88;5065638;28;20225;-71
2022/10/31 03:02:19;;;;;;;7.03;3.83;;;;;;;9.02;100.00;96730.53;5064653;28;20204;-71
2022/10/31 03:04:58;;;;;;;6.93;4.17;;;;;;;8.99;100.00;96724.78;5060874;28;20687;-71
2022/10/31 03:07:32;;;;;;;9.30;4.00;;;;;;;9.11;100.00;96726.97;5067109;28;20568;-71
2022/10/31 03:10:06;;;;;;;6.70;4.03;;;;;;;9.12;100.00;96728.63;5066338;28;21105;-71
2022/10/31 03:12:39;;;;;;;8.50;4.10;;;;;;;9.08;100.00;96729.91;5070663;28;20196;-71
2022/10/31 03:15:15;;;;;;;8.47;3.87;;;;;;;9.06;100.00;96729.22;5061345;28;20618;-71
2022/10/31 03:17:55;;;;;;;6.83;3.97;;;;;;;9.02;100.00;96730.53;5061625;28;20218;-71
2022/10/31 03:20:27;;;;;;;15.53;4.53;;;;;;;9.08;100.00;96732.53;5062385;28;20223;-71
2022/10/31 03:22:56;;;;;;;6.57;3.80;;;;;;;9.00;100.00;96734.28;5062170;28;20204;-71
2022/10/31 03:25:23;;;;;;;9.50;4.07;;;;;;;9.05;100.00;96732.03;5067383;28;20219;-71
2022/10/31 03:27:52;;;;;;;8.13;4.23;;;;;;;9.00;100.00;96735.13;5065673;28;20192;-71
2022/10/31 03:30:19;;;;;;;9.50;4.33;;;;;;;9.00;100.00;96732.50;5064604;28;20792;-71
2022/10/31 03:32:51;;;;;;;7.40;3.90;;;;;;;9.13;100.00;96740.78;5065536;28;20262;-71
2022/10/31 03:35:22;;;;;;;8.63;4.63;;;;;;;9.01;100.00;96736.75;5061742;28;20228;-71
2022/10/31 03:37:50;;;;;;;10.93;4.27;;;;;;;9.01;100.00;96744.66;5066542;28;20202;-71
2022/10/31 03:40:20;;;;;;;10.33;4.20;;;;;;;9.10;100.00;96741.94;5065368;28;20224;-71
2022/10/31 03:42:54;;;;;;;10.03;4.83;;;;;;;9.12;100.00;96739.94;5062987;28;20206;-71
2022/10/31 03:45:25;;;;;;;6.63;4.30;;;;;;;9.13;100.00;96740.78;5063023;28;20223;-71
2022/10/31 03:47:54;;;;;;;12.20;4.77;;;;;;;9.05;100.00;96738.13;5064249;28;20196;-71
2022/10/31 03:50:24;;;;;;;9.07;4.53;;;;;;;8.87;100.00;96737.34;5065211;28;20199;-71
2022/10/31 03:52:58;;;;;;;11.90;4.37;;;;;;;8.88;100.00;96738.16;5063131;28;20203;-71
2022/10/31 03:55:29;;;;;;;6.37;4.13;;;;;;;8.84;100.00;96732.38;5065089;28;20230;-71
2022/10/31 03:58:01;;;;;;;6.40;3.97;;;;;;;8.82;100.00;96729.09;5070407;28;20195;-71
2022/10/31 04:00:28;;;;;;;10.07;4.63;;;;;;;8.77;100.00;96734.00;5061372;28;20592;-71
2022/10/31 04:03:01;;;;;;;6.17;3.93;;;;;;;8.94;100.00;96729.69;5067979;28;20196;-71
2022/10/31 04:05:29;;;;;;;8.43;3.60;;;;;;;8.81;100.00;96732.72;5061146;28;20231;-71
2022/10/31 04:07:58;;;;;;;4.80;3.50;;;;;;;8.90;100.00;96731.78;5063964;28;20196;-71
2022/10/31 04:10:27;;;;;;;6.03;2.77;;;;;;;8.89;100.00;96722.25;5066805;28;20200;-71
2022/10/31 04:12:59;;;;;;;11.23;3.67;;;;;;;8.79;100.00;96726.78;5065857;28;20211;-71
2022/10/31 04:15:28;;;;;;;6.07;3.20;;;;;;;8.72;100.00;96717.06;5063035;28;20224;-71
2022/10/31 04:17:59;;;;;;;6.70;3.33;;;;;;;8.81;100.00;96730.09;5070363;28;20200;-71
2022/10/31 04:20:32;;;;;;;7.73;3.50;;;;;;;8.83;100.00;96722.84;5067119;28;20212;-71
2022/10/31 04:22:59;;;;;;;6.43;3.40;;;;;;;8.67;100.00;96722.75;5060924;28;20204;-71
2022/10/31 04:25:26;;;;;;;4.77;3.27;;;;;;;8.64;100.00;96730.97;5065375;28;20232;-71
2022/10/31 04:27:52;;;;;;;6.87;3.27;;;;;;;8.57;100.00;96727.28;5061277;28;20208;-71
2022/10/31 04:30:19;;;;;;;5.00;3.20;;;;;;;8.58;100.00;96726.31;5065152;28;20227;-71
2022/10/31 04:32:45;;;;;;;5.57;3.37;;;;;;;8.66;100.00;96725.53;5067934;28;20200;-71
2022/10/31 04:35:13;;;;;;;4.50;2.90;;;;;;;8.54;100.00;96717.09;5064538;28;20232;-71
2022/10/31 04:37:40;;;;;;;6.10;3.37;;;;;;;8.39;100.00;96723.03;5067807;28;20659;-71
2022/10/31 04:40:07;;;;;;;7.33;3.33;;;;;;;8.33;100.00;96723.63;5068025;28;20224;-71
2022/10/31 04:42:34;;;;;;;6.80;4.17;;;;;;;8.36;100.00;96718.06;5067094;28;20385;-71
2022/10/31 04:45:00;;;;;;;6.20;3.57;;;;;;;8.41;100.00;96715.81;5072765;28;20594;-71
2022/10/31 04:47:27;;;;;;;5.57;3.73;;;;;;;8.27;100.00;96715.53;5065503;28;20203;-71
2022/10/31 04:49:53;;;;;;;4.93;3.37;;;;;;;8.15;100.00;96720.19;5068012;28;20196;-71
2022/10/31 04:52:21;;;;;;;7.43;3.00;;;;;;;8.28;100.00;96714.56;5070822;28;20718;-71
2022/10/31 04:54:48;;;;;;;7.73;4.00;;;;;;;8.24;100.00;96702.72;5063717;28;20226;-71
2022/10/31 04:57:14;;;;;;;5.87;3.47;;;;;;;8.23;100.00;96719.44;5067099;28;20203;-71
2022/10/31 04:59:41;;;;;;;11.80;3.60;;;;;;;8.24;100.00;96713.22;5067290;28;21023;-71
2022/10/31 05:02:07;;;;;;;6.23;3.77;;;;;;;8.19;100.00;96712.84;5069884;28;20207;-71
2022/10/31 05:04:33;;;;;;;7.57;3.67;;;;;;;8.25;100.00;96714.84;5060372;28;20204;-71
2022/10/31 05:07:00;;;;;;;9.27;3.33;;;;;;;8.22;100.00;96717.78;5067232;28;20204;-71
2022/10/31 05:09:28;;;;;;;6.27;3.60;;;;;;;8.21;100.00;96722.22;5064603;28;20205;-71
2022/10/31 05:11:54;;;;;;;8.13;3.53;;;;;;;8.17;100.00;96713.00;5068632;28;20200;-71
2022/10/31 05:14:21;;;;;;;9.77;3.27;;;;;;;8.08;100.00;96716.50;5067596;28;20243;-71
2022/10/31 05:16:47;;;;;;;7.70;3.90;;;;;;;8.04;100.00;96722.19;5069741;28;21199;-71
2022/10/31 05:19:14;;;;;;;6.97;4.00;;;;;;;8.08;100.00;96715.66;5066814;28;20207;-71
2022/10/31 05:21:40;;;;;;;5.60;3.77;;;;;;;8.22;100.00;96721.25;5067352;28;20203;-71
2022/10/31 05:24:08;;;;;;;9.80;4.83;;;;;;;8.23;100.00;96720.25;5069818;28;20212;-71
2022/10/31 05:26:35;;;;;;;5.63;3.50;;;;;;;8.26;100.00;96706.84;5065530;28;20224;-71
2022/10/31 05:29:02;;;;;;;7.37;4.07;;;;;;;8.17;100.00;96717.41;5068377;28;20203;-71
2022/10/31 05:31:29;;;;;;;8.27;4.50;;;;;;;8.19;100.00;96699.72;5070120;28;20219;-71
2022/10/31 05:33:55;;;;;;;11.90;4.67;;;;;;;8.08;100.00;96703.38;5067483;28;20200;-71
2022/10/31 05:36:22;;;;;;;11.77;5.23;;;;;;;8.01;100.00;96702.31;5069832;28;20600;-71
2022/10/31 05:38:48;;;;;;;12.17;4.70;;;;;;;8.15;100.00;96701.81;5065321;28;20210;-71
2022/10/31 05:41:15;;;;;;;16.60;4.50;;;;;;;8.09;100.00;96689.25;5065792;28;20224;-71
2022/10/31 05:43:42;;;;;;;12.73;3.83;;;;;;;8.13;100.00;96697.66;5061842;28;20209;-71
2022/10/31 05:46:09;;;;;;;7.87;3.70;;;;;;;8.06;100.00;96699.25;5063971;28;20287;-71
2022/10/31 05:48:35;;;;;;;5.93;3.43;;;;;;;8.17;100.00;96685.91;5070789;28;20240;-71
2022/10/31 05:51:02;;;;;;;4.90;3.33;;;;;;;8.19;100.00;96695.28;5069181;28;20291;-71
2022/10/31 05:53:28;;;;;;;10.27;4.37;;;;;;;8.13;100.00;96692.41;5068697;28;20212;-71
2022/10/31 05:55:55;;;;;;;11.20;3.50;;;;;;;8.15;100.00;96693.13;5071844;28;20226;-71
2022/10/31 05:58:21;;;;;;;6.27;3.20;;;;;;;8.18;100.00;96695.44;5071425;28;20979;-71
2022/10/31 06:00:49;;;;;;;9.53;3.60;;;;;;;8.07;100.00;96700.88;5067240;28;20228;-71
2022/10/31 06:03:16;;;;;;;6.67;3.70;;;;;;;7.89;100.00;96698.28;5067895;28;20291;-71
2022/10/31 06:05:42;;;;;;;6.27;3.70;;;;;;;7.91;100.00;96695.50;5065062;28;21533;-71
2022/10/31 06:08:09;;;;;;;9.80;4.27;;;;;;;7.79;100.00;96707.19;5069434;28;20591;-71
2022/10/31 06:10:35;;;;;;;9.37;4.20;;;;;;;7.81;100.00;96699.19;5063796;28;20203;-72
2022/10/31 06:13:02;;;;;;;8.90;4.13;;;;;;;7.94;100.00;96695.19;5063524;28;20207;-72
2022/10/31 06:15:29;;;;;;;8.70;3.70;;;;;;;7.87;100.00;96702.84;5066962;28;20228;-72
2022/10/31 06:18:01;;;;;;;7.53;3.97;;;;;;;7.97;100.00;96685.22;5065276;28;20568;-72
2022/10/31 06:20:27;;;;;;;10.63;4.03;;;;;;;7.97;100.00;96695.72;5065963;28;20228;-72
2022/10/31 06:22:54;;;;;;;9.63;4.17;;;;;;;8.06;100.00;96680.88;5067440;28;20199;-72
2022/10/31 06:25:20;;;;;;;9.13;4.03;;;;;;;8.03;100.00;96679.38;5065301;28;20220;-72
2022/10/31 06:27:47;;;;;;;10.93;4.40;;;;;;;7.98;100.00;96694.75;5067761;28;20208;-72
2022/10/31 06:30:14;;;;;;;10.77;5.00;;;;;;;8.03;100.00;96683.78;5066665;28;20196;-72
2022/10/31 06:32:41;;;;;;;6.37;3.80;;;;;;;8.03;100.00;96683.78;5068563;28;20238;-72
2022/10/31 06:35:09;;;;;;;6.33;3.70;;;;;;;8.13;100.00;96689.78;5061238;28;20235;-72
2022/10/31 06:37:35;;;;;;;6.17;3.60;;;;;;;8.02;100.00;96700.53;5062958;28;20204;-72
2022/10/31 06:40:02;;;;;;;6.60;3.80;;;;;;;7.95;100.00;96702.91;5062331;28;20224;-72
2022/10/31 06:42:29;;;;;;;6.80;3.87;;;;;;;8.00;100.00;96703.28;5069420;28;20199;-72
2022/10/31 06:44:55;;;;;;;9.07;4.57;;;;;;;8.15;100.00;96693.94;5062814;28;20220;-72
2022/10/31 06:47:22;;;;;;;8.37;4.40;;;;;;;8.21;100.00;96693.34;5059824;28;20208;-72
2022/10/31 06:49:48;;;;;;;12.17;5.23;;;;;;;8.25;100.00;96694.69;5059852;28;20218;-72
2022/10/31 06:52:16;;;;;;;14.20;5.33;;;;;;;8.44;100.00;96688.44;5064665;28;20211;-72
2022/10/31 06:54:43;;;;;;;12.07;4.73;;;;;;;8.46;100.00;96691.75;5061647;28;20632;-72
2022/10/31 06:57:09;;;;;;;9.87;5.10;;;;;;;8.40;100.00;96694.97;5065840;28;20203;-72
2022/10/31 06:59:36;;;;;;;13.17;5.50;;;;;;;8.36;100.00;96696.25;5066459;28;20201;-72
2022/10/31 07:02:02;;;;;;;13.00;6.10;;;;;;;8.45;100.00;96703.22;5064606;28;20216;-72
2022/10/31 07:04:29;;;;;;;9.13;5.00;;;;;;;8.60;100.00;96713.84;5064187;28;20211;-72
2022/10/31 07:06:56;;;;;;;7.63;4.63;;;;;;;8.71;100.00;96692.56;5063592;28;20218;-72
2022/10/31 07:09:23;;;;;;;8.97;4.90;;;;;;;8.89;100.00;96705.66;5063422;28;20680;-71
2022/10/31 07:11:52;;;;;;;8.70;5.03;;;;;;;9.00;100.00;96703.59;5062066;28;20192;-71
2022/10/31 07:14:19;;;;;;;5.67;4.00;;;;;;;9.08;100.00;96707.06;5062750;28;20203;-71
2022/10/31 07:16:50;;;;;;;7.80;4.37;;;;;;;9.18;100.00;96706.97;5066876;28;20221;-71
2022/10/31 07:19:16;;;;;;;7.37;4.53;;;;;;;9.18;100.00;96704.34;5065994;28;20200;-71
2022/10/31 07:21:43;;;;;;;9.20;5.23;;;;;;;9.19;100.00;96709.44;5062505;28;20235;-71
2022/10/31 07:24:09;;;;;;;7.63;4.40;;;;;;;9.32;100.00;96703.75;5061613;28;20208;-71
2022/10/31 07:26:37;;;;;;;6.63;4.40;;;;;;;9.50;100.00;96704.47;5056840;28;20323;-72
2022/10/31 07:29:04;;;;;;;6.73;4.17;;;;;;;9.55;100.00;96702.19;5061114;28;20200;-72
2022/10/31 07:31:30;;;;;;;10.37;4.43;;;;;;;9.66;100.00;96709.78;5056987;28;20201;-72
2022/10/31 07:33:57;;;;;;;9.00;4.50;;;;;;;9.73;100.00;96709.78;5056401;28;20205;-72
2022/10/31 07:36:24;;;;;;;7.83;4.43;;;;;;;9.67;100.00;96703.53;5056198;28;20613;-72
2022/10/31 07:38:50;;;;;;;10.87;4.83;;;;;;;9.76;100.00;96709.50;5056804;28;20200;-72
2022/10/31 07:41:17;;;;;;;9.57;4.70;;;;;;;9.92;100.00;96706.88;5056758;28;20563;-72
2022/10/31 07:43:45;;;;;;;10.13;4.70;;;;;;;10.05;100.00;96712.53;5056097;28;20193;-72
2022/10/31 07:46:11;;;;;;;9.90;4.80;;;;;;;9.90;100.00;96706.25;5056907;28;20231;-72
2022/10/31 07:48:38;;;;;;;8.77;4.50;;;;;;;10.09;100.00;96705.94;5054896;28;20208;-72
2022/10/31 07:51:06;;;;;;;7.27;4.57;;;;;;;10.23;100.00;96705.31;5057193;28;20212;-72
2022/10/31 07:53:33;;;;;;;11.33;5.27;;;;;;;10.37;100.00;96704.66;5056543;28;20211;-72
2022/10/31 07:55:59;;;;;;;14.03;5.20;;;;;;;10.49;100.00;96692.81;5056642;28;20220;-72
2022/10/31 07:58:26;;;;;;;13.33;5.53;;;;;;;10.72;100.00;96693.78;5056598;28;20212;-72
2022/10/31 08:00:54;;;;;;;9.87;5.47;;;;;;;10.85;100.00;96697.56;5056236;28;20216;-72
2022/10/31 08:03:20;;;;;;;12.57;5.67;;;;;;;10.90;100.00;96691.78;5055919;28;20672;-72
2022/10/31 08:05:47;;;;;;;11.60;5.40;;;;;;;10.79;100.00;96685.03;5056722;28;21088;-72
2022/10/31 08:08:15;;;;;;;13.80;5.53;;;;;;;11.11;100.00;96696.34;5057196;28;20220;-72
2022/10/31 08:10:42;;;;;;;8.57;5.17;;;;;;;11.21;100.00;96693.50;5060568;28;20608;-71
2022/10/31 08:13:10;;;;;;;13.47;5.47;;;;;;;11.44;100.00;96686.50;5066061;28;20201;-72
2022/10/31 08:15:39;;;;;;;12.27;5.80;;;;;;;11.49;100.00;96682.34;5061318;28;21075;-71
2022/10/31 08:18:11;;;;;;;11.97;5.80;;;;;;;11.65;100.00;96683.13;5064218;28;20207;-72
2022/10/31 08:20:38;;;;;;;12.50;6.40;;;;;;;11.78;100.00;96690.50;5064803;28;20227;-71
2022/10/31 08:23:06;;;;;;;9.57;5.47;;;;;;;11.81;100.00;96687.50;5062128;28;20204;-72
2022/10/31 08:25:34;;;;;;;12.33;6.10;;;;;;;11.90;100.00;96683.81;5069389;28;20220;-71
2022/10/31 08:28:01;;;;;;;11.97;6.63;;;;;;;12.01;100.00;96680.78;5062531;28;20196;-72
2022/10/31 08:30:29;;;;;;;15.30;7.20;;;;;;;12.14;100.00;96675.72;5065514;28;20196;-71
2022/10/31 08:33:01;;;;;;;19.63;7.57;;;;;;;12.22;100.00;96669.41;5070481;28;20208;-72
2022/10/31 08:35:29;;;;;;;14.40;7.57;;;;;;;12.22;100.00;96668.59;5068837;28;21134;-72
2022/10/31 08:37:56;;;;;;;14.87;7.87;;;;;;;12.30;100.00;96661.41;5070098;28;20564;-71
2022/10/31 08:40:23;;;;;;;13.23;7.10;;;;;;;12.40;100.00;96669.91;5070753;28;20580;-72
2022/10/31 08:42:57;;;;;;;16.73;7.07;;;;;;;12.64;100.00;96668.88;5069141;28;21112;-72
2022/10/31 08:45:24;;;;;;;15.75;7.78;;;;;;;12.66;100.00;96670.34;5069578;28;20219;-72
2022/10/31 08:47:50;;;;;;;17.02;8.57;;;;;;;12.60;100.00;96664.94;5070380;28;20892;-72
2022/10/31 08:50:17;;;;;;;16.75;8.30;;;;;;;12.79;100.00;96660.81;5069584;28;20210;-72
2022/10/31 08:52:45;;;;;;;19.42;7.22;;;;;;;12.89;100.00;96666.69;5061024;28;20197;-72
2022/10/31 08:55:11;;;;;;;17.13;8.07;;;;;;;12.93;100.00;96667.13;5060505;28;20228;-72
2022/10/31 08:57:38;;;;;;;16.65;8.10;;;;;;;12.98;100.00;96664.78;5066687;28;20204;-72
2022/10/31 09:00:06;;;;;;;13.90;8.40;;;;;;;13.06;100.00;96669.97;5061194;28;20197;-72
2022/10/31 09:02:32;;;;;;;12.48;7.10;;;;;;;13.15;100.00;96668.88;5066611;28;20227;-72
2022/10/31 09:04:59;;;;;;;16.02;8.18;;;;;;;13.21;100.00;96660.22;5063961;28;20308;-72
2022/10/31 09:07:26;;;;;;;18.95;8.27;;;;;;;13.20;100.00;96662.06;5059495;28;20214;-72
2022/10/31 09:09:55;;;;;;;20.55;8.45;;;;;;;13.32;100.00;96657.13;5061581;28;20204;-72
2022/10/31 09:12:23;;;;;;;19.98;8.45;;;;;;;13.26;100.00;96655.19;5062209;28;20314;-72
2022/10/31 09:14:50;;;;;;;14.50;7.97;;;;;;;13.42;100.00;96651.34;5067566;28;20224;-71
2022/10/31 09:17:16;;;;;;;14.02;9.13;;;;;;;13.60;100.00;96654.44;5065603;28;20193;-72
2022/10/31 09:19:43;;;;;;;15.32;7.65;;;;;;;13.78;100.00;96649.53;5064218;28;20660;-73
2022/10/31 09:22:10;;;;;;;18.15;8.05;;;;;;;13.94;100.00;96636.09;5058885;28;20220;-73
2022/10/31 09:24:36;;;;;;;15.95;7.28;;;;;;;13.94;100.00;96646.69;5062903;28;20215;-73
2022/10/31 09:27:04;;;;;;;17.58;7.90;;;;;;;14.14;100.00;96645.06;5062093;28;20319;-71
2022/10/31 09:29:31;;;;;;;14.70;8.07;;;;;;;14.09;100.00;96644.81;5057821;28;20219;-71
2022/10/31 09:31:57;;;;;;;16.30;8.35;;;;;;;13.92;100.00;96640.75;5064231;28;20207;-73
2022/10/31 09:34:24;;;;;;;17.10;9.20;;;;;;;13.97;100.00;96635.69;5053663;28;20209;-72
2022/10/31 09:36:51;;;;;;;18.45;8.73;;;;;;;14.11;100.00;96640.16;5065318;28;20214;-72
2022/10/31 09:39:17;;;;;;;15.00;8.98;;;;;;;14.11;100.00;96638.31;5058728;28;20203;-73
2022/10/31 09:42:08;;;;;;;17.25;8.93;;;;;;;14.04;100.00;96641.91;5057993;28;20236;-73
2022/10/31 09:44:46;;;;;;;17.48;8.55;;;;;;;14.25;100.00;96639.28;5055431;28;20676;-73
2022/10/31 09:47:23;;;;;;;11.95;7.18;;;;;;;14.25;100.00;96637.44;5063907;28;20200;-72
2022/10/31 09:50:07;;;;;;;14.10;7.25;;;;;;;14.32;100.00;96634.84;5057667;28;20208;-73
2022/10/31 09:52:36;;;;;;;14.45;7.03;;;;;;;14.29;100.00;96645.84;5057004;28;20199;-72
2022/10/31 09:55:09;;;;;;;14.75;7.15;;;;;;;14.53;100.00;96643.63;5057465;28;20947;-71
2022/10/31 09:57:38;;;;;;;14.75;7.75;;;;;;;14.52;100.00;96641.97;5057471;28;20200;-72
2022/10/31 10:00:06;;;;;;;14.85;6.88;;;;;;;14.38;100.00;96634.09;5058112;28;20581;-72
2022/10/31 10:02:38;;;;;;;13.43;6.70;;;;;;;14.35;100.00;96637.94;5056980;28;20853;-72
2022/10/31 10:05:10;;;;;;;12.48;6.82;;;;;;;14.45;100.00;96640.28;5054966;28;20790;-73
2022/10/31 10:07:45;;;;;;;11.15;6.50;;;;;;;14.65;100.00;96634.16;5057969;28;20566;-72
2022/10/31 10:10:16;;;;;;;12.30;6.85;;;;;;;14.63;100.00;96628.19;5057959;28;20204;-72
2022/10/31 10:12:59;;;;;;;12.32;7.75;;;;;;;14.70;100.00;96639.66;5056944;28;20197;-72
2022/10/31 10:15:43;;;;;;;13.45;7.45;;;;;;;14.57;100.00;96633.44;5058545;28;20235;-73
2022/10/31 10:18:32;;;;;;;11.45;6.93;;;;;;;14.75;100.00;96631.94;5057242;28;20907;-73
2022/10/31 10:21:10;;;;;;;13.80;7.22;;;;;;;14.82;100.00;96631.00;5061192;28;20208;-73
2022/10/31 10:23:49;;;;;;;13.07;7.28;;;;;;;14.88;100.00;96627.56;5071443;28;20699;-72
2022/10/31 10:26:19;;;;;;;14.43;6.75;;;;;;;14.74;100.00;96625.84;5056826;28;20589;-72
2022/10/31 10:28:50;;;;;;;12.75;7.22;;;;;;;15.00;100.00;96619.91;5066590;28;20204;-72
2022/10/31 10:31:21;;;;;;;14.93;7.18;;;;;;;14.99;100.00;96618.25;5058312;28;20785;-72
2022/10/31 10:34:00;;;;;;;12.20;7.43;;;;;;;15.06;100.00;96619.09;5056676;28;20206;-72
2022/10/31 10:36:34;;;;;;;11.57;7.60;;;;;;;15.10;100.00;96612.41;5056532;28;20236;-72
2022/10/31 10:39:05;;;;;;;15.35;7.13;;;;;;;15.18;100.00;96612.25;5058820;28;20974;-72
2022/10/31 10:41:34;;;;;;;14.68;7.20;;;;;;;15.13;100.00;96615.47;5063856;28;20692;-73
2022/10/31 10:44:02;;;;;;;13.88;7.38;;;;;;;15.17;100.00;96611.41;5063672;28;20571;-74
2022/10/31 10:49:29;;;;;;;13.90;7.55;;;;;;;15.13;100.00;96604.84;5065287;28;20204;-73
2022/10/31 10:51:59;;;;;;;14.18;7.40;;;;;;;15.32;100.00;96604.19;5064455;28;20759;-74
2022/10/31 10:54:50;;;;;;;12.13;7.93;;;;;;;15.38;100.00;96601.53;5064852;28;20212;-73
2022/10/31 10:57:28;;;;;;;14.15;7.53;;;;;;;15.09;100.00;96608.91;5062584;28;20195;-73
2022/10/31 10:59:56;;;;;;;17.02;8.38;;;;;;;15.17;100.00;96598.13;5064135;28;20199;-74
2022/10/31 11:02:24;;;;;;;18.55;8.18;;;;;;;15.09;100.00;96602.81;5057382;28;20228;-73
2022/10/31 11:04:53;;;;;;;19.05;8.70;;;;;;;15.10;100.00;96599.94;5059109;28;20248;-73
2022/10/31 11:07:20;;;;;;;20.02;8.65;;;;;;;15.20;100.00;96594.25;5056155;28;20227;-73
2022/10/31 11:09:47;;;;;;;18.13;8.45;;;;;;;15.04;100.00;96587.44;5055622;28;20231;-74
2022/10/31 11:12:20;;;;;;;16.83;9.02;;;;;;;15.23;100.00;96586.78;5055472;28;20212;-74
2022/10/31 11:14:50;;;;;;;14.40;8.52;;;;;;;15.06;100.00;96589.91;5058488;28;20216;-73
2022/10/31 11:17:28;;;;;;;20.50;8.57;;;;;;;15.03;100.00;96583.19;5063394;28;20745;-72
2022/10/31 11:20:05;;;;;;;18.25;9.73;;;;;;;15.23;100.00;96581.47;5062201;28;21012;-73
2022/10/31 11:22:31;;;;;;;21.05;8.82;;;;;;;15.14;100.00;96581.81;5054969;28;20214;-73
2022/10/31 11:24:58;;;;;;;18.70;9.80;;;;;;;15.22;100.00;96571.84;5058139;28;20240;-74
2022/10/31 11:27:26;;;;;;;22.02;10.60;;;;;;;15.21;100.00;96570.25;5062575;28;20210;-74
2022/10/31 11:29:53;;;;;;;20.50;10.05;;;;;;;15.43;100.00;96574.41;5064637;28;20207;-71
2022/10/31 11:32:24;;;;;;;20.95;9.85;;;;;;;15.59;100.00;96558.94;5063649;28;20220;-73
2022/10/31 11:34:54;;;;;;;22.88;10.18;;;;;;;15.65;100.00;96562.63;5066603;28;20217;-73
2022/10/31 11:37:23;;;;;;;20.92;10.85;;;;;;;15.72;100.00;96563.47;5064248;28;20208;-73
2022/10/31 11:39:54;;;;;;;21.85;11.18;;;;;;;15.71;100.00;96561.84;5063155;28;20230;-71